Time;durP1;ratioP1;P1;durP2;ratioP2;P2;SDS_P1;SDS_P2;PMS_P1;PMS_P2;Temp;Humidity;BMP_temperature;BMP_pressure;BME280_temperature;BME280_humidity;BME280_pressure;Samples;Min_cycle;Max_cycle;Signal;HPM_P1;HPM_P2
2021/12/02 00:01:04;;;;;;;2.92;0.57;;;-0.80;78.70;;;;;;4140690;28;20029;-77
2021/12/02 00:03:07;;;;;;;2.58;0.85;;;-0.90;78.40;;;;;;4158832;28;20032;-77
2021/12/02 00:05:08;;;;;;;3.17;1.08;;;-0.90;78.50;;;;;;4160097;28;20164;-76
2021/12/02 00:07:09;;;;;;;2.22;0.65;;;-0.90;78.80;;;;;;4157494;28;20426;-78
2021/12/02 00:09:09;;;;;;;1.90;0.60;;;-0.90;78.90;;;;;;4154396;28;20029;-78
2021/12/02 00:11:10;;;;;;;1.42;0.60;;;-0.90;79.40;;;;;;4158900;28;20701;-76
2021/12/02 00:13:11;;;;;;;5.95;0.90;;;-0.90;79.80;;;;;;4156725;28;20034;-76
2021/12/02 00:15:21;;;;;;;3.22;0.85;;;-0.90;78.50;;;;;;4141487;28;20488;-76
2021/12/02 00:17:26;;;;;;;2.13;0.68;;;-0.90;78.60;;;;;;4155589;28;20056;-76
2021/12/02 00:21:50;;;;;;;2.83;0.70;;;-0.90;78.00;;;;;;4156132;28;20107;-76
2021/12/02 00:24:04;;;;;;;1.45;0.40;;;-0.90;78.30;;;;;;4141543;28;20026;-77
2021/12/02 00:26:09;;;;;;;2.80;0.93;;;-0.80;78.60;;;;;;4162027;28;20125;-78
2021/12/02 00:28:09;;;;;;;2.35;0.88;;;-0.90;78.70;;;;;;4160336;28;20530;-77
2021/12/02 00:30:10;;;;;;;3.08;0.80;;;-0.90;78.70;;;;;;4159697;28;21547;-77
2021/12/02 00:32:11;;;;;;;5.18;0.55;;;-0.80;78.90;;;;;;4160224;28;20435;-78
2021/12/02 00:34:11;;;;;;;3.95;0.80;;;-0.80;78.90;;;;;;4143758;28;20365;-77
2021/12/02 00:36:13;;;;;;;2.13;0.55;;;-0.90;78.80;;;;;;4161600;28;20038;-77
2021/12/02 00:38:14;;;;;;;3.85;0.75;;;-0.80;78.80;;;;;;4159601;28;20502;-77
2021/12/02 00:40:15;;;;;;;4.78;0.65;;;-0.90;78.50;;;;;;4143089;28;20038;-77
2021/12/02 00:42:15;;;;;;;3.67;0.70;;;-0.80;79.00;;;;;;4128303;28;20035;-77
2021/12/02 00:44:18;;;;;;;2.15;0.60;;;-0.80;78.80;;;;;;4144849;28;20790;-77
2021/12/02 00:46:20;;;;;;;2.75;0.60;;;-0.80;78.70;;;;;;4144459;28;20037;-77
2021/12/02 00:48:21;;;;;;;1.33;0.83;;;-0.80;78.80;;;;;;4128926;28;20034;-78
2021/12/02 00:50:21;;;;;;;6.25;0.85;;;-0.80;78.70;;;;;;4138183;28;20320;-78
2021/12/02 00:52:22;;;;;;;4.18;0.70;;;-0.80;78.20;;;;;;4159700;28;20030;-76
2021/12/02 00:54:24;;;;;;;2.47;0.50;;;-0.80;78.30;;;;;;4144959;28;20064;-78
2021/12/02 00:56:25;;;;;;;1.95;0.70;;;-0.80;78.30;;;;;;4146882;28;20299;-77
2021/12/02 00:58:25;;;;;;;1.25;0.40;;;-0.80;78.10;;;;;;4163190;28;20108;-78
2021/12/02 01:00:26;;;;;;;1.70;0.68;;;-0.80;79.00;;;;;;4159473;28;20041;-77
2021/12/02 01:02:26;;;;;;;2.63;0.70;;;-0.80;78.30;;;;;;4160847;28;20030;-78
2021/12/02 01:04:27;;;;;;;3.22;0.70;;;-0.80;78.10;;;;;;4144818;28;20022;-78
2021/12/02 01:06:28;;;;;;;1.65;0.50;;;-0.80;77.90;;;;;;4150766;28;20029;-77
2021/12/02 01:08:29;;;;;;;2.78;0.60;;;-0.80;77.80;;;;;;4125817;28;20112;-78
2021/12/02 01:10:30;;;;;;;3.30;0.52;;;-0.80;77.50;;;;;;4157977;28;20168;-78
2021/12/02 01:12:31;;;;;;;7.97;0.70;;;-0.80;77.60;;;;;;4143665;28;20030;-79
2021/12/02 01:14:31;;;;;;;5.53;0.60;;;-0.80;77.80;;;;;;4126728;28;20050;-78
2021/12/02 01:16:32;;;;;;;4.65;1.00;;;-0.80;77.60;;;;;;4158216;28;20021;-78
2021/12/02 01:18:32;;;;;;;2.15;0.40;;;-0.80;77.10;;;;;;4144321;28;20521;-78
2021/12/02 01:20:33;;;;;;;3.28;0.60;;;-0.80;77.20;;;;;;4128671;28;20045;-78
2021/12/02 01:22:36;;;;;;;1.58;0.50;;;-0.80;77.20;;;;;;4143907;28;20033;-78
2021/12/02 01:24:36;;;;;;;2.55;0.73;;;-0.80;77.00;;;;;;4161198;28;20056;-77
2021/12/02 01:26:37;;;;;;;1.58;0.52;;;-0.80;77.90;;;;;;4143689;28;20479;-78
2021/12/02 01:28:38;;;;;;;1.42;0.45;;;-0.80;76.40;;;;;;4110050;28;20014;-77
2021/12/02 01:30:38;;;;;;;6.53;0.50;;;-0.80;76.80;;;;;;4159004;28;20041;-77
2021/12/02 01:32:39;;;;;;;0.88;0.40;;;-0.80;76.00;;;;;;4144439;28;20033;-78
2021/12/02 01:34:40;;;;;;;2.92;0.50;;;-0.80;76.90;;;;;;4129205;28;20030;-78
2021/12/02 01:36:41;;;;;;;2.63;0.57;;;-0.70;76.30;;;;;;4127383;28;20381;-78
2021/12/02 01:38:41;;;;;;;0.70;0.30;;;-0.70;76.40;;;;;;4159183;28;20025;-77
2021/12/02 01:40:45;;;;;;;1.88;0.40;;;-0.70;76.40;;;;;;4159792;28;20368;-78
2021/12/02 01:42:46;;;;;;;2.25;0.60;;;-0.60;76.60;;;;;;4128613;28;20033;-77
2021/12/02 01:44:46;;;;;;;2.05;0.47;;;-0.70;76.40;;;;;;4160510;28;20041;-77
2021/12/02 01:46:48;;;;;;;2.53;0.60;;;-0.60;76.30;;;;;;4159798;28;20072;-78
2021/12/02 01:49:12;;;;;;;1.60;0.50;;;-0.60;76.30;;;;;;4144647;28;20512;-77
2021/12/02 01:51:13;;;;;;;5.47;0.63;;;-0.60;76.40;;;;;;4130547;28;20423;-78
2021/12/02 01:53:15;;;;;;;3.67;0.57;;;-0.50;76.70;;;;;;4125180;28;20523;-77
2021/12/02 01:55:16;;;;;;;3.95;0.55;;;-0.50;76.50;;;;;;4142099;28;20072;-77
2021/12/02 01:57:26;;;;;;;3.33;0.65;;;-0.50;76.50;;;;;;4143900;28;20530;-78
2021/12/02 01:59:33;;;;;;;3.50;0.63;;;-0.50;76.80;;;;;;4126160;28;20027;-78
2021/12/02 02:01:34;;;;;;;1.65;0.50;;;-0.40;77.10;;;;;;4138707;28;20030;-79
2021/12/02 02:03:35;;;;;;;1.98;0.32;;;-0.50;77.00;;;;;;4109350;28;20027;-77
2021/12/02 02:05:36;;;;;;;1.70;0.52;;;-0.50;77.10;;;;;;4124001;28;20415;-76
2021/12/02 02:07:39;;;;;;;1.95;0.50;;;-0.50;77.50;;;;;;4129188;28;20104;-76
2021/12/02 02:09:40;;;;;;;1.20;0.30;;;-0.50;77.90;;;;;;4159274;28;20022;-77
2021/12/02 02:11:41;;;;;;;2.20;0.50;;;-0.40;78.30;;;;;;4158255;28;20039;-77
2021/12/02 02:13:43;;;;;;;1.33;0.40;;;-0.40;78.50;;;;;;4143298;28;20022;-77
2021/12/02 02:15:47;;;;;;;2.47;0.50;;;-0.40;78.90;;;;;;4140621;28;20446;-77
2021/12/02 02:18:07;;;;;;;1.65;0.57;;;-0.40;79.20;;;;;;4143745;28;20026;-77
2021/12/02 02:20:10;;;;;;;4.97;0.65;;;-0.40;79.60;;;;;;4136481;28;20026;-77
2021/12/02 02:22:12;;;;;;;1.88;0.50;;;-0.40;79.80;;;;;;4159891;28;20040;-77
2021/12/02 02:24:15;;;;;;;6.97;0.65;;;-0.40;80.10;;;;;;4156450;28;20132;-77
2021/12/02 02:26:22;;;;;;;3.40;0.77;;;-0.40;80.40;;;;;;4146295;28;20065;-78
2021/12/02 02:28:22;;;;;;;2.33;0.60;;;-0.40;80.50;;;;;;4142302;28;20412;-77
2021/12/02 02:30:23;;;;;;;7.00;0.70;;;-0.30;80.50;;;;;;4141425;28;20080;-77
2021/12/02 02:32:25;;;;;;;2.15;0.73;;;-0.30;80.60;;;;;;4158114;28;20130;-77
2021/12/02 02:34:25;;;;;;;4.85;1.00;;;-0.30;80.50;;;;;;4158803;28;20037;-77
2021/12/02 02:36:29;;;;;;;5.93;0.68;;;-0.30;80.20;;;;;;4158438;28;20055;-76
2021/12/02 02:38:30;;;;;;;2.88;0.60;;;-0.30;79.90;;;;;;4142147;28;20029;-76
2021/12/02 02:40:31;;;;;;;2.90;0.73;;;-0.30;79.60;;;;;;4145132;28;20448;-77
2021/12/02 02:42:32;;;;;;;5.82;1.05;;;-0.30;79.40;;;;;;4158818;28;20495;-77
2021/12/02 02:44:33;;;;;;;7.78;0.90;;;-0.20;78.90;;;;;;4143296;28;20278;-77
2021/12/02 02:46:36;;;;;;;3.22;0.85;;;-0.20;78.20;;;;;;4127039;28;20581;-77
2021/12/02 02:48:37;;;;;;;2.47;0.47;;;-0.20;77.50;;;;;;4144010;28;20042;-76
2021/12/02 02:50:37;;;;;;;6.20;0.93;;;-0.20;77.40;;;;;;4157919;28;20100;-77
2021/12/02 02:52:38;;;;;;;7.90;1.27;;;-0.20;77.80;;;;;;4124319;28;20092;-78
2021/12/02 02:54:39;;;;;;;10.15;0.90;;;-0.10;76.60;;;;;;4158849;28;20034;-78
2021/12/02 02:56:50;;;;;;;4.10;0.90;;;-0.10;76.20;;;;;;4161026;28;20044;-77
2021/12/02 03:01:05;;;;;;;5.65;1.02;;;-0.10;75.80;;;;;;4157565;28;20105;-77
2021/12/02 03:07:41;;;;;;;12.25;1.40;;;-0.10;74.60;;;;;;4110098;28;20522;-77
2021/12/02 03:09:57;;;;;;;8.18;2.00;;;-0.20;74.50;;;;;;4159476;28;20482;-77
2021/12/02 03:12:07;;;;;;;13.57;0.90;;;-0.20;74.60;;;;;;4158310;28;20029;-76
2021/12/02 03:14:11;;;;;;;7.03;1.17;;;-0.10;74.70;;;;;;4157522;28;20052;-76
2021/12/02 03:18:31;;;;;;;7.57;0.95;;;-0.10;74.40;;;;;;4158513;28;20540;-77
2021/12/02 03:20:32;;;;;;;8.70;0.90;;;-0.10;74.10;;;;;;4157069;28;20116;-76
2021/12/02 03:22:33;;;;;;;1.85;0.57;;;-0.10;73.90;;;;;;4157980;28;20069;-77
2021/12/02 03:24:33;;;;;;;5.45;0.55;;;-0.10;73.70;;;;;;4158998;28;20475;-77
2021/12/02 03:26:34;;;;;;;8.45;0.73;;;-0.10;74.40;;;;;;4144416;28;20086;-78
2021/12/02 03:28:35;;;;;;;4.78;0.60;;;0.00;73.60;;;;;;4142480;28;20351;-77
2021/12/02 03:30:35;;;;;;;6.47;0.90;;;0.00;73.50;;;;;;4158094;28;20060;-77
2021/12/02 03:32:37;;;;;;;3.88;1.17;;;0.00;72.80;;;;;;4158527;28;20100;-77
2021/12/02 03:34:38;;;;;;;2.63;0.70;;;0.00;73.00;;;;;;4143054;28;20037;-77
2021/12/02 03:36:39;;;;;;;9.00;0.80;;;0.00;72.40;;;;;;4157229;28;20025;-76
2021/12/02 03:38:39;;;;;;;2.42;0.70;;;0.10;72.10;;;;;;4157187;28;20088;-77
2021/12/02 03:40:40;;;;;;;5.40;0.85;;;0.10;72.30;;;;;;4157181;28;20049;-77
2021/12/02 03:42:48;;;;;;;6.25;1.15;;;0.10;71.40;;;;;;4158563;28;20021;-77
2021/12/02 03:44:48;;;;;;;3.80;0.95;;;0.10;71.00;;;;;;4156766;28;20064;-77
2021/12/02 03:46:49;;;;;;;5.97;1.05;;;0.10;71.40;;;;;;4158180;28;20103;-77
2021/12/02 03:48:50;;;;;;;12.63;1.27;;;0.10;71.10;;;;;;4158540;28;20021;-78
2021/12/02 03:50:51;;;;;;;7.30;1.23;;;0.00;70.50;;;;;;4141028;28;20018;-78
2021/12/02 03:52:52;;;;;;;11.75;1.52;;;0.00;70.80;;;;;;4157463;28;20438;-77
2021/12/02 03:54:52;;;;;;;7.20;0.90;;;0.00;71.10;;;;;;4158570;28;20037;-77
2021/12/02 03:56:53;;;;;;;11.15;1.50;;;0.00;71.40;;;;;;4157097;28;20363;-77
2021/12/02 03:58:54;;;;;;;6.20;1.10;;;0.00;71.40;;;;;;4158289;28;20045;-77
2021/12/02 04:00:54;;;;;;;6.45;1.38;;;0.10;71.70;;;;;;4156624;28;20040;-77
2021/12/02 04:02:55;;;;;;;5.35;1.13;;;0.10;71.70;;;;;;4140742;28;20038;-76
2021/12/02 04:04:56;;;;;;;5.60;1.00;;;0.00;71.90;;;;;;4160218;28;20053;-77
2021/12/02 04:06:56;;;;;;;10.55;0.98;;;0.10;72.10;;;;;;4154974;28;20117;-77
2021/12/02 04:11:27;;;;;;;10.85;1.13;;;0.00;72.30;;;;;;4158449;28;20534;-77
2021/12/02 04:13:32;;;;;;;11.25;1.35;;;0.00;72.30;;;;;;4145738;28;20368;-77
2021/12/02 04:15:36;;;;;;;9.95;1.45;;;0.00;72.60;;;;;;4124122;28;20037;-77
2021/12/02 04:17:43;;;;;;;7.50;1.08;;;0.00;72.70;;;;;;4157417;28;20465;-77
2021/12/02 04:19:43;;;;;;;11.25;1.40;;;-0.10;72.80;;;;;;4141248;28;20026;-77
2021/12/02 04:21:44;;;;;;;9.30;1.38;;;-0.10;72.70;;;;;;4141604;28;20045;-77
2021/12/02 04:23:45;;;;;;;7.45;1.50;;;-0.10;72.80;;;;;;4142238;28;20022;-77
2021/12/02 04:25:45;;;;;;;9.57;1.20;;;-0.10;73.00;;;;;;4158271;28;20031;-77
2021/12/02 04:27:46;;;;;;;15.20;2.40;;;-0.20;73.00;;;;;;4157936;28;20038;-76
2021/12/02 04:29:47;;;;;;;14.38;1.52;;;-0.20;73.70;;;;;;4141617;28;20022;-76
2021/12/02 04:31:47;;;;;;;10.45;1.70;;;-0.20;72.90;;;;;;4158119;28;20060;-76
2021/12/02 04:33:48;;;;;;;11.25;1.58;;;-0.20;72.90;;;;;;4157844;28;20025;-77
2021/12/02 04:35:49;;;;;;;14.60;1.55;;;-0.20;73.70;;;;;;4142316;28;20036;-76
2021/12/02 04:37:51;;;;;;;9.52;1.38;;;-0.20;73.00;;;;;;4139081;28;20041;-77
2021/12/02 04:39:52;;;;;;;10.70;1.67;;;-0.20;73.00;;;;;;4157844;28;20495;-77
2021/12/02 04:41:53;;;;;;;16.85;1.50;;;-0.20;73.00;;;;;;4156421;28;20022;-77
2021/12/02 04:43:53;;;;;;;10.77;1.63;;;-0.20;72.80;;;;;;4158405;28;20309;-77
2021/12/02 04:45:54;;;;;;;11.05;1.55;;;-0.20;73.00;;;;;;4156060;28;20033;-77
2021/12/02 04:47:55;;;;;;;17.75;1.70;;;-0.20;72.80;;;;;;4157613;28;20426;-76
2021/12/02 04:49:55;;;;;;;9.70;1.90;;;-0.20;72.70;;;;;;4157189;28;20113;-76
2021/12/02 04:51:56;;;;;;;13.95;2.03;;;-0.20;72.70;;;;;;4155968;28;20067;-77
2021/12/02 04:53:57;;;;;;;5.53;1.10;;;-0.20;72.70;;;;;;4155904;28;20526;-76
2021/12/02 04:55:57;;;;;;;13.27;1.63;;;-0.20;72.50;;;;;;4156903;28;20036;-76
2021/12/02 04:57:58;;;;;;;9.65;1.40;;;-0.20;73.00;;;;;;4141939;28;20034;-77
2021/12/02 04:59:58;;;;;;;7.03;1.30;;;-0.20;72.40;;;;;;4156155;28;20032;-76
2021/12/02 05:01:59;;;;;;;10.05;1.38;;;-0.20;73.20;;;;;;4169737;28;20486;-77
2021/12/02 05:04:00;;;;;;;13.50;1.70;;;-0.20;72.50;;;;;;4157383;28;20032;-78
2021/12/02 05:06:00;;;;;;;17.73;1.95;;;-0.20;72.30;;;;;;4157100;28;20030;-79
2021/12/02 05:08:03;;;;;;;9.45;1.73;;;-0.20;72.30;;;;;;4170412;28;20302;-78
2021/12/02 05:10:04;;;;;;;8.82;1.25;;;-0.20;72.30;;;;;;4157614;28;20029;-77
2021/12/02 05:12:05;;;;;;;9.43;1.40;;;-0.20;72.20;;;;;;4142290;28;20125;-76
2021/12/02 05:14:08;;;;;;;8.57;1.10;;;-0.20;72.50;;;;;;4157297;28;20045;-78
2021/12/02 05:16:09;;;;;;;15.98;1.88;;;-0.10;72.40;;;;;;4159168;28;20522;-78
2021/12/02 05:18:09;;;;;;;13.77;2.03;;;-0.20;72.00;;;;;;4141187;28;20080;-77
2021/12/02 05:20:10;;;;;;;7.57;1.30;;;-0.20;71.70;;;;;;4156241;28;20044;-78
2021/12/02 05:22:11;;;;;;;11.32;1.25;;;-0.20;71.70;;;;;;4125340;28;20062;-77
2021/12/02 05:24:11;;;;;;;14.13;1.67;;;-0.20;71.60;;;;;;4158708;28;20025;-77
2021/12/02 05:26:12;;;;;;;12.02;1.50;;;-0.10;71.80;;;;;;4159197;28;20459;-77
2021/12/02 05:28:15;;;;;;;8.35;1.35;;;-0.20;71.60;;;;;;4161820;28;20030;-78
2021/12/02 05:30:16;;;;;;;10.18;1.35;;;-0.10;71.90;;;;;;4159378;28;20544;-77
2021/12/02 05:32:16;;;;;;;13.43;1.77;;;-0.10;71.90;;;;;;4159066;28;20136;-78
2021/12/02 05:34:17;;;;;;;10.07;1.33;;;-0.10;71.90;;;;;;4126141;28;20400;-77
2021/12/02 05:36:17;;;;;;;13.73;1.73;;;-0.10;71.50;;;;;;4158231;28;20411;-77
2021/12/02 05:38:18;;;;;;;7.65;1.40;;;-0.10;71.40;;;;;;4159179;28;20124;-77
2021/12/02 05:40:19;;;;;;;9.77;1.52;;;-0.10;71.40;;;;;;4159262;28;20288;-77
2021/12/02 05:42:19;;;;;;;10.50;1.25;;;-0.10;71.20;;;;;;4159412;28;20113;-77
2021/12/02 05:44:21;;;;;;;7.55;1.40;;;-0.10;71.20;;;;;;4160966;28;20486;-76
2021/12/02 05:46:21;;;;;;;12.23;2.38;;;-0.10;71.10;;;;;;4159557;28;20060;-77
2021/12/02 05:48:22;;;;;;;8.07;1.13;;;-0.10;70.80;;;;;;4158322;28;20369;-77
2021/12/02 05:50:23;;;;;;;11.48;1.42;;;-0.10;71.00;;;;;;4141210;28;20041;-76
2021/12/02 05:52:23;;;;;;;11.30;1.67;;;-0.10;71.10;;;;;;4154633;28;20110;-76
2021/12/02 05:54:24;;;;;;;4.60;1.35;;;-0.10;71.10;;;;;;4158781;28;20439;-76
2021/12/02 05:56:25;;;;;;;17.48;1.63;;;-0.10;71.20;;;;;;4145648;28;20030;-77
2021/12/02 05:58:25;;;;;;;11.65;2.03;;;-0.10;71.50;;;;;;4158700;28;20041;-78
2021/12/02 06:00:26;;;;;;;13.57;1.42;;;-0.10;71.60;;;;;;4138308;28;20040;-78
2021/12/02 06:02:27;;;;;;;10.25;1.73;;;-0.10;71.60;;;;;;4159301;28;20034;-77
2021/12/02 06:04:28;;;;;;;14.05;2.25;;;-0.10;71.60;;;;;;4161045;28;20091;-77
2021/12/02 06:06:28;;;;;;;10.45;1.95;;;-0.10;71.50;;;;;;4155151;28;20026;-77
2021/12/02 06:08:29;;;;;;;18.23;1.73;;;-0.20;71.30;;;;;;4158812;28;20025;-77
2021/12/02 06:10:30;;;;;;;10.88;1.50;;;-0.20;71.00;;;;;;4157379;28;20033;-77
2021/12/02 06:12:31;;;;;;;8.57;1.38;;;-0.20;71.10;;;;;;4157820;28;20526;-77
2021/12/02 06:14:31;;;;;;;13.45;2.10;;;-0.20;70.90;;;;;;4158975;28;20033;-76
2021/12/02 06:16:32;;;;;;;14.93;1.30;;;-0.20;71.00;;;;;;4159530;28;20081;-77
2021/12/02 06:18:33;;;;;;;14.32;2.20;;;-0.20;70.90;;;;;;4159153;28;20256;-77
2021/12/02 06:20:33;;;;;;;8.90;1.40;;;-0.20;70.60;;;;;;4140931;28;20030;-77
2021/12/02 06:22:34;;;;;;;8.70;1.35;;;-0.20;70.70;;;;;;4141531;28;20034;-77
2021/12/02 06:24:43;;;;;;;15.80;1.75;;;-0.20;70.70;;;;;;4159789;28;20084;-77
2021/12/02 06:26:43;;;;;;;11.02;1.23;;;-0.20;70.60;;;;;;4160560;28;20554;-78
2021/12/02 06:28:45;;;;;;;11.40;2.22;;;-0.10;70.70;;;;;;4160563;28;20093;-77
2021/12/02 06:30:46;;;;;;;10.18;1.70;;;-0.20;70.30;;;;;;4159417;28;20112;-77
2021/12/02 06:32:46;;;;;;;16.40;2.22;;;-0.20;70.20;;;;;;4138949;28;20064;-77
2021/12/02 06:34:47;;;;;;;7.63;1.17;;;-0.10;70.20;;;;;;4159712;28;20091;-77
2021/12/02 06:36:48;;;;;;;6.60;1.08;;;-0.10;70.20;;;;;;4159246;28;20033;-76
2021/12/02 06:38:48;;;;;;;7.25;1.60;;;-0.20;70.00;;;;;;4159767;28;20033;-76
2021/12/02 06:40:49;;;;;;;13.90;1.85;;;-0.20;70.00;;;;;;4160593;28;20034;-77
2021/12/02 06:42:50;;;;;;;12.80;1.63;;;-0.20;70.20;;;;;;4157514;28;20431;-77
2021/12/02 06:44:50;;;;;;;12.80;1.42;;;-0.20;70.80;;;;;;4142819;28;20026;-76
2021/12/02 06:46:51;;;;;;;9.43;1.75;;;-0.10;70.30;;;;;;4155380;28;20116;-77
2021/12/02 06:48:52;;;;;;;10.45;1.33;;;-0.10;70.40;;;;;;4158454;28;20037;-77
2021/12/02 06:50:52;;;;;;;13.27;1.92;;;-0.10;70.40;;;;;;4154714;28;20021;-76
2021/12/02 06:52:53;;;;;;;7.63;1.50;;;-0.10;70.10;;;;;;4157926;28;20041;-77
2021/12/02 06:54:54;;;;;;;11.32;1.30;;;-0.10;70.20;;;;;;4157875;28;20052;-76
2021/12/02 06:56:55;;;;;;;14.27;1.45;;;-0.10;70.20;;;;;;4152549;28;20040;-77
2021/12/02 06:58:56;;;;;;;13.38;1.65;;;-0.10;70.20;;;;;;4154242;28;20108;-77
2021/12/02 07:00:56;;;;;;;11.43;2.80;;;-0.10;70.10;;;;;;4136966;28;20078;-77
2021/12/02 07:02:57;;;;;;;9.38;1.35;;;-0.10;70.20;;;;;;4152700;28;20035;-77
2021/12/02 07:04:58;;;;;;;8.30;1.38;;;0.00;70.20;;;;;;4157847;28;20412;-76
2021/12/02 07:06:58;;;;;;;13.52;2.20;;;0.00;70.50;;;;;;4154121;28;20060;-76
2021/12/02 07:08:59;;;;;;;13.25;1.40;;;0.00;71.10;;;;;;4154528;28;20443;-77
2021/12/02 07:11:03;;;;;;;5.82;1.27;;;0.00;70.40;;;;;;4156164;28;20053;-77
2021/12/02 07:13:04;;;;;;;7.57;1.63;;;0.00;70.50;;;;;;4153410;28;20041;-76
2021/12/02 07:15:10;;;;;;;12.02;1.50;;;0.00;70.30;;;;;;4154835;28;20033;-77
2021/12/02 07:17:10;;;;;;;21.70;1.58;;;0.00;70.30;;;;;;4156101;28;20045;-78
2021/12/02 07:19:12;;;;;;;6.10;1.33;;;0.00;70.30;;;;;;4156690;28;20045;-78
2021/12/02 07:21:12;;;;;;;18.02;2.42;;;0.00;70.30;;;;;;4139226;28;20026;-76
2021/12/02 07:23:14;;;;;;;11.27;1.60;;;0.00;69.90;;;;;;4169797;28;20414;-76
2021/12/02 07:25:15;;;;;;;13.75;1.45;;;0.00;70.00;;;;;;4154644;28;20588;-77
2021/12/02 07:27:15;;;;;;;7.22;1.35;;;0.00;70.10;;;;;;4154821;28;20061;-76
2021/12/02 07:29:16;;;;;;;6.57;1.15;;;0.00;69.90;;;;;;4152153;28;20030;-77
2021/12/02 07:31:16;;;;;;;6.63;1.33;;;0.00;69.70;;;;;;4146197;28;20483;-76
2021/12/02 07:33:17;;;;;;;6.10;1.10;;;0.00;70.00;;;;;;4152945;28;20083;-77
2021/12/02 07:35:18;;;;;;;9.80;1.60;;;0.00;69.70;;;;;;4157179;28;20037;-77
2021/12/02 07:37:18;;;;;;;14.93;2.67;;;0.00;69.60;;;;;;4136900;28;20571;-76
2021/12/02 07:39:19;;;;;;;7.95;1.58;;;0.10;69.80;;;;;;4138155;28;20037;-77
2021/12/02 07:41:20;;;;;;;8.65;1.55;;;0.10;70.50;;;;;;4155166;28;20490;-76
2021/12/02 07:43:21;;;;;;;14.77;1.83;;;0.00;69.60;;;;;;4154845;28;20040;-76
2021/12/02 07:45:23;;;;;;;7.75;1.20;;;0.10;69.50;;;;;;4153747;28;20029;-76
2021/12/02 07:47:24;;;;;;;9.48;2.17;;;0.10;69.50;;;;;;4156765;28;20029;-77
2021/12/02 07:49:25;;;;;;;12.50;1.33;;;0.10;69.70;;;;;;4154149;28;20045;-76
2021/12/02 07:51:28;;;;;;;12.40;1.70;;;0.10;69.60;;;;;;4153213;28;20034;-77
2021/12/02 07:53:29;;;;;;;5.50;1.30;;;0.10;69.70;;;;;;4137940;28;20032;-77
2021/12/02 07:55:31;;;;;;;12.48;1.60;;;0.10;69.90;;;;;;4154196;28;20656;-77
2021/12/02 07:57:33;;;;;;;10.52;1.77;;;0.10;69.40;;;;;;4153540;28;20026;-77
2021/12/02 07:59:33;;;;;;;7.57;1.20;;;0.10;69.60;;;;;;4123238;28;20523;-76
2021/12/02 08:01:34;;;;;;;8.57;1.20;;;0.10;69.40;;;;;;4154814;28;20041;-76
2021/12/02 08:03:35;;;;;;;14.40;2.20;;;0.10;69.20;;;;;;4150097;28;20030;-76
2021/12/02 08:05:36;;;;;;;8.77;1.52;;;0.10;68.90;;;;;;4151472;28;20391;-77
2021/12/02 08:07:39;;;;;;;9.95;1.15;;;0.10;68.90;;;;;;4137132;28;20033;-77
2021/12/02 08:09:39;;;;;;;10.40;1.92;;;0.10;69.10;;;;;;4152884;28;20446;-77
2021/12/02 08:11:40;;;;;;;13.80;1.40;;;0.10;68.40;;;;;;4152229;28;20064;-77
2021/12/02 08:13:41;;;;;;;6.97;1.63;;;0.10;68.80;;;;;;4155744;28;20037;-76
2021/12/02 08:15:42;;;;;;;3.35;0.90;;;0.20;68.80;;;;;;4155159;28;20029;-77
2021/12/02 08:17:43;;;;;;;7.95;1.33;;;0.20;68.90;;;;;;4136320;28;20053;-77
2021/12/02 08:19:44;;;;;;;12.48;1.50;;;0.20;69.00;;;;;;4152162;28;20077;-77
2021/12/02 08:21:44;;;;;;;10.65;1.67;;;0.20;69.00;;;;;;4150139;28;20082;-77
2021/12/02 08:23:45;;;;;;;5.03;1.10;;;0.10;68.90;;;;;;4156822;28;20013;-77
2021/12/02 08:25:46;;;;;;;12.40;1.58;;;0.20;69.00;;;;;;4151390;28;20112;-76
2021/12/02 08:27:47;;;;;;;11.95;1.80;;;0.20;69.00;;;;;;4151362;28;20038;-77
2021/12/02 08:29:48;;;;;;;5.32;1.50;;;0.10;69.00;;;;;;4153453;28;20495;-77
2021/12/02 08:31:49;;;;;;;7.65;1.38;;;0.10;69.00;;;;;;4152427;28;20033;-77
2021/12/02 08:33:52;;;;;;;9.57;1.25;;;0.10;69.10;;;;;;4136177;28;20042;-76
2021/12/02 08:35:53;;;;;;;5.57;1.35;;;0.10;69.30;;;;;;4137446;28;20070;-77
2021/12/02 08:37:57;;;;;;;10.77;1.80;;;0.20;69.40;;;;;;4152908;28;20395;-77
2021/12/02 08:40:00;;;;;;;14.43;1.70;;;0.10;69.40;;;;;;4167681;28;20041;-77
2021/12/02 08:42:02;;;;;;;11.05;1.50;;;0.10;69.50;;;;;;4155149;28;20022;-77
2021/12/02 08:44:03;;;;;;;8.40;1.45;;;0.20;69.50;;;;;;4156043;28;20418;-76
2021/12/02 08:46:04;;;;;;;7.13;1.58;;;0.10;69.60;;;;;;4159759;22;20053;-65
2021/12/02 08:48:05;;;;;;;19.50;1.92;;;0.20;69.90;;;;;;4156495;28;20029;-66
2021/12/02 08:50:06;;;;;;;11.27;1.25;;;0.10;70.70;;;;;;4156636;28;20116;-65
2021/12/02 08:52:07;;;;;;;12.27;1.58;;;0.20;70.20;;;;;;4151453;28;20033;-65
2021/12/02 08:54:10;;;;;;;15.00;1.85;;;0.20;70.30;;;;;;4155988;28;20647;-66
2021/12/02 08:56:11;;;;;;;8.15;1.55;;;0.20;70.30;;;;;;4153237;28;21639;-66
2021/12/02 08:58:12;;;;;;;12.73;1.70;;;0.20;70.20;;;;;;4158137;28;20079;-66
2021/12/02 09:00:14;;;;;;;13.60;1.88;;;0.20;70.20;;;;;;4136449;28;20033;-65
2021/12/02 09:02:15;;;;;;;8.47;1.50;;;0.20;70.30;;;;;;4153832;28;20030;-66
2021/12/02 09:04:16;;;;;;;4.88;0.98;;;0.20;70.00;;;;;;4155525;28;20292;-66
2021/12/02 09:06:21;;;;;;;11.77;1.55;;;0.20;69.80;;;;;;4155311;28;20033;-66
2021/12/02 09:08:24;;;;;;;15.68;1.58;;;0.20;69.80;;;;;;4157472;28;20148;-65
2021/12/02 09:10:26;;;;;;;8.65;1.40;;;0.20;69.60;;;;;;4154386;28;20497;-65
2021/12/02 09:12:26;;;;;;;6.80;1.05;;;0.20;69.60;;;;;;4153928;28;20044;-66
2021/12/02 09:14:27;;;;;;;14.63;1.40;;;0.20;69.80;;;;;;4136740;28;20069;-66
2021/12/02 09:16:29;;;;;;;9.95;1.35;;;0.20;69.60;;;;;;4155517;28;20091;-65
2021/12/02 09:18:30;;;;;;;14.95;1.83;;;0.30;69.60;;;;;;4155175;28;20045;-65
2021/12/02 09:20:30;;;;;;;8.52;1.48;;;0.30;69.60;;;;;;4151934;28;20042;-64
2021/12/02 09:22:31;;;;;;;11.43;1.35;;;0.30;69.70;;;;;;4149002;28;20119;-65
2021/12/02 09:24:32;;;;;;;29.33;1.80;;;0.30;69.80;;;;;;4157648;28;20037;-65
2021/12/02 09:26:33;;;;;;;8.05;1.40;;;0.30;69.70;;;;;;4151884;28;20477;-64
2021/12/02 09:28:34;;;;;;;12.75;2.03;;;0.30;69.50;;;;;;4154545;28;20083;-64
2021/12/02 09:30:35;;;;;;;11.57;1.38;;;0.30;69.30;;;;;;4154739;28;20021;-64
2021/12/02 09:32:36;;;;;;;11.05;1.35;;;0.30;69.50;;;;;;4157702;28;20083;-66
2021/12/02 09:34:37;;;;;;;14.85;1.48;;;0.40;69.40;;;;;;4154284;28;20116;-64
2021/12/02 09:36:38;;;;;;;13.73;1.63;;;0.40;69.50;;;;;;4156183;28;20131;-65
2021/12/02 09:38:39;;;;;;;10.82;1.15;;;0.40;69.30;;;;;;4139148;28;20125;-65
2021/12/02 09:40:41;;;;;;;14.55;2.03;;;0.40;69.20;;;;;;4139607;28;20041;-65
2021/12/02 09:42:42;;;;;;;5.07;1.00;;;0.40;69.10;;;;;;4156301;28;20108;-66
2021/12/02 09:44:46;;;;;;;15.75;2.53;;;0.40;69.20;;;;;;4156043;28;20059;-64
2021/12/02 09:46:47;;;;;;;12.68;2.72;;;0.40;69.40;;;;;;4154730;28;20396;-64
2021/12/02 09:48:48;;;;;;;8.18;1.77;;;0.50;69.30;;;;;;4154690;28;20021;-66
2021/12/02 09:50:55;;;;;;;13.93;1.92;;;0.50;69.20;;;;;;4156967;28;20040;-64
2021/12/02 09:53:05;;;;;;;7.18;1.50;;;0.50;68.90;;;;;;4133590;28;20064;-66
2021/12/02 09:55:12;;;;;;;9.32;1.50;;;0.50;69.10;;;;;;4154666;28;20056;-65
2021/12/02 09:57:17;;;;;;;11.43;1.40;;;0.50;69.20;;;;;;4156110;28;20041;-64
2021/12/02 09:59:26;;;;;;;6.90;1.10;;;0.60;69.10;;;;;;4155865;28;20059;-67
2021/12/02 10:01:37;;;;;;;10.38;1.40;;;0.60;69.10;;;;;;4138418;28;20042;-67
2021/12/02 10:03:40;;;;;;;8.90;1.67;;;0.60;69.10;;;;;;4155762;28;20380;-67
2021/12/02 10:05:53;;;;;;;10.48;1.83;;;0.60;69.10;;;;;;4153419;28;20021;-69
2021/12/02 10:08:00;;;;;;;8.95;1.63;;;0.60;69.00;;;;;;4154261;28;20385;-67
2021/12/02 10:12:14;;;;;;;11.70;1.80;;;0.60;68.90;;;;;;4152885;28;20029;-67
2021/12/02 10:14:27;;;;;;;11.27;1.58;;;0.60;69.00;;;;;;4150346;28;20108;-67
2021/12/02 10:16:31;;;;;;;10.15;1.30;;;0.60;68.70;;;;;;4154082;28;20029;-67
2021/12/02 10:18:50;;;;;;;8.70;1.30;;;0.70;68.60;;;;;;4146176;28;20116;-67
2021/12/02 10:20:52;;;;;;;10.70;1.30;;;0.70;68.80;;;;;;4151480;28;20047;-67
2021/12/02 10:23:15;;;;;;;8.43;1.20;;;0.70;69.00;;;;;;4150638;28;20540;-67
2021/12/02 10:25:30;;;;;;;8.73;1.80;;;0.70;68.50;;;;;;4154905;28;20021;-67
2021/12/02 10:27:30;;;;;;;15.02;2.60;;;0.70;68.60;;;;;;4136198;28;20042;-67
2021/12/02 10:29:36;;;;;;;9.02;2.42;;;0.70;68.60;;;;;;4134495;28;21654;-67
2021/12/02 10:31:38;;;;;;;9.60;1.85;;;0.70;68.50;;;;;;4149566;28;20045;-68
2021/12/02 10:33:45;;;;;;;11.90;1.98;;;0.80;68.80;;;;;;4150028;28;20114;-67
2021/12/02 10:35:46;;;;;;;13.82;2.10;;;0.80;68.80;;;;;;4128116;28;20117;-68
2021/12/02 10:37:47;;;;;;;9.43;1.33;;;0.80;68.80;;;;;;4150762;28;20464;-67
2021/12/02 10:40:05;;;;;;;13.10;1.45;;;0.80;69.00;;;;;;4153766;28;20017;-67
2021/12/02 10:42:09;;;;;;;10.25;1.50;;;0.80;69.10;;;;;;4154145;28;20038;-67
2021/12/02 10:44:24;;;;;;;7.07;1.35;;;0.80;69.20;;;;;;4156739;28;20107;-67
2021/12/02 10:46:25;;;;;;;11.23;2.03;;;0.80;69.40;;;;;;4153040;28;21902;-67
2021/12/02 10:48:43;;;;;;;10.57;1.42;;;0.80;69.70;;;;;;4153111;28;20040;-67
2021/12/02 10:50:44;;;;;;;9.05;1.48;;;0.80;69.90;;;;;;4136618;28;20034;-67
2021/12/02 10:52:45;;;;;;;4.90;1.27;;;0.80;69.90;;;;;;4154162;28;20037;-67